createdAt,value
2019-04-20T00:01:36.023Z,77.21
2019-04-20T00:04:05.433Z,77.26
2019-04-20T00:06:43.376Z,76.80
2019-04-20T00:09:12.063Z,77.16
2019-04-20T00:11:50.709Z,76.88
2019-04-20T00:14:13.432Z,76.87
2019-04-20T00:16:37.825Z,77.22
2019-04-20T00:19:08.532Z,78.49
2019-04-20T00:21:47.362Z,79.46
2019-04-20T00:24:16.877Z,79.42
2019-04-20T00:27:08.548Z,79.83
2019-04-20T00:29:32.218Z,79.62
2019-04-20T00:31:53.610Z,79.69
2019-04-20T00:34:21.292Z,79.46
2019-04-20T00:36:43.424Z,79.82
2019-04-20T00:39:15.014Z,78.98
2019-04-20T00:41:49.898Z,79.63
2019-04-20T00:44:21.934Z,79.91
2019-04-20T00:46:56.832Z,79.52
2019-04-20T00:49:30.584Z,79.83
2019-04-20T00:52:17.059Z,79.71
2019-04-20T00:54:15.984Z,79.54
2019-04-20T00:56:45.447Z,80.06
2019-04-20T00:59:27.659Z,78.87
2019-04-20T01:02:04.052Z,78.38
2019-04-20T01:04:38.870Z,77.36
2019-04-20T01:07:06.301Z,76.81
2019-04-20T01:09:25.025Z,76.65
2019-04-20T01:11:54.527Z,76.34
2019-04-20T01:14:34.058Z,75.31
2019-04-20T01:16:58.794Z,74.54
2019-04-20T01:19:24.016Z,73.58
2019-04-20T01:21:59.674Z,74.14
2019-04-20T01:24:29.708Z,74.65
2019-04-20T01:26:58.463Z,73.98
2019-04-20T01:29:32.439Z,74.77
2019-04-20T01:32:07.979Z,74.41
2019-04-20T01:34:39.165Z,75.23
2019-04-20T01:37:09.299Z,75.50
2019-04-20T01:39:34.806Z,76.23
2019-04-20T01:41:56.143Z,76.54
2019-04-20T01:44:31.742Z,76.26
2019-04-20T01:46:58.722Z,76.18
2019-04-20T01:49:31.535Z,76.85
2019-04-20T01:52:09.701Z,77.39
2019-04-20T01:54:48.193Z,77.21
2019-04-20T01:57:09.002Z,77.06
2019-04-20T01:59:50.151Z,77.62
2019-04-20T02:02:14.624Z,78.17
2019-04-20T02:04:48.271Z,76.89
2019-04-20T02:07:18.449Z,78.05
2019-04-20T02:09:53.462Z,78.28
2019-04-20T02:12:23.655Z,77.37
2019-04-20T02:14:53.713Z,76.22
2019-04-20T02:17:28.366Z,76.57
2019-04-20T02:20:07.335Z,76.33
2019-04-20T02:22:40.754Z,76.00
2019-04-20T02:24:48.961Z,76.02
2019-04-20T02:27:19.725Z,76.80
2019-04-20T02:30:13.459Z,76.86
2019-04-20T02:32:59.266Z,75.45
2019-04-20T02:35:30.230Z,74.46
2019-04-20T02:38:02.885Z,74.05
2019-04-20T02:40:47.729Z,73.88
2019-04-20T02:48:08.098Z,73.79
2019-04-20T02:50:28.651Z,74.11
2019-04-20T02:53:05.125Z,74.27
2019-04-20T03:00:23.937Z,74.47
2019-04-20T03:02:43.936Z,74.29
2019-04-20T03:05:12.179Z,75.41
2019-04-20T03:07:52.528Z,74.75
2019-04-20T03:10:17.730Z,73.98
2019-04-20T03:12:53.706Z,74.57
2019-04-20T03:15:24.051Z,73.58
2019-04-20T03:17:53.087Z,74.66
2019-04-20T03:20:22.104Z,74.39
2019-04-20T03:23:11.681Z,74.90
2019-04-20T03:25:43.112Z,72.81
2019-04-20T03:28:10.323Z,73.23
2019-04-20T03:33:31.414Z,73.26
2019-04-20T03:36:06.148Z,73.52
2019-04-20T03:38:21.110Z,74.86
2019-04-20T03:40:42.726Z,74.76
2019-04-20T03:43:01.994Z,74.48
2019-04-20T03:45:39.184Z,74.44
2019-04-20T03:48:14.352Z,73.48
2019-04-20T03:50:54.670Z,73.08
2019-04-20T03:53:22.953Z,73.08
2019-04-20T03:55:52.865Z,71.69
2019-04-20T03:58:30.569Z,71.20
2019-04-20T04:01:32.867Z,72.04
2019-04-20T04:04:05.387Z,71.50
2019-04-20T04:06:24.161Z,71.58
2019-04-20T04:08:57.542Z,72.16
2019-04-20T04:11:35.298Z,72.90
2019-04-20T04:13:46.484Z,73.12
2019-04-20T04:16:18.483Z,74.02
2019-04-20T04:18:49.631Z,73.96
2019-04-20T04:21:22.092Z,74.34
2019-04-20T04:24:02.420Z,74.54
2019-04-20T04:26:34.344Z,74.85
2019-04-20T04:29:11.010Z,74.35
2019-04-20T04:31:39.127Z,73.68
2019-04-20T04:34:22.883Z,72.54
2019-04-20T04:36:39.140Z,72.29
2019-04-20T04:39:08.683Z,71.11
2019-04-20T04:41:37.443Z,71.27
2019-04-20T04:44:09.926Z,71.35
2019-04-20T04:46:20.693Z,70.72
2019-04-20T04:48:52.738Z,69.84
2019-04-20T04:51:25.711Z,69.65
2019-04-20T04:53:59.335Z,69.80
2019-04-20T04:56:23.976Z,70.21
2019-04-20T04:58:51.732Z,70.28
2019-04-20T05:01:26.006Z,69.66
2019-04-20T05:04:19.238Z,69.68
2019-04-20T05:06:35.657Z,70.27
2019-04-20T05:08:56.831Z,71.95
2019-04-20T05:11:23.801Z,73.18
2019-04-20T05:13:59.705Z,73.58
2019-04-20T05:16:40.942Z,72.86
2019-04-20T05:21:53.555Z,71.88
2019-04-20T05:24:27.943Z,71.93
2019-04-20T05:27:01.933Z,72.71
2019-04-20T05:29:17.706Z,73.58
2019-04-20T05:31:47.131Z,72.79
2019-04-20T05:34:30.914Z,72.32
2019-04-20T05:37:03.640Z,71.79
2019-04-20T05:39:33.000Z,72.00
2019-04-20T05:42:02.975Z,71.36
2019-04-20T05:44:39.434Z,70.53
2019-04-20T05:47:09.273Z,69.73
2019-04-20T05:49:40.273Z,69.60
2019-04-20T05:52:15.340Z,69.10
2019-04-20T05:54:43.090Z,67.28
2019-04-20T05:57:19.540Z,64.76
2019-04-20T05:59:47.342Z,66.09
2019-04-20T06:02:14.034Z,65.49
2019-04-20T06:04:54.572Z,64.66
2019-04-20T06:07:09.458Z,63.21
2019-04-20T06:09:39.679Z,60.42
2019-04-20T06:12:25.385Z,59.78
2019-04-20T06:14:53.631Z,61.09
2019-04-20T06:17:33.356Z,60.40
2019-04-20T06:20:06.246Z,58.85
2019-04-20T06:22:37.904Z,56.06
2019-04-20T06:25:21.895Z,53.96
2019-04-20T06:27:39.980Z,55.12
2019-04-20T06:30:06.891Z,52.39
2019-04-20T06:33:11.486Z,52.25
2019-04-20T06:35:51.729Z,48.94
2019-04-20T06:38:10.146Z,49.79
2019-04-20T06:40:46.884Z,51.13
2019-04-20T06:43:08.996Z,52.03
2019-04-20T06:45:33.569Z,50.64
2019-04-20T06:48:05.831Z,50.05
2019-04-20T06:50:30.245Z,48.70
2019-04-20T06:53:32.417Z,46.18
2019-04-20T06:55:57.368Z,41.18
2019-04-20T06:58:39.375Z,38.12
2019-04-20T07:00:56.922Z,40.07
2019-04-20T07:03:40.712Z,37.86
2019-04-20T07:06:18.300Z,35.54
2019-04-20T07:08:42.316Z,34.27
2019-04-20T07:11:04.187Z,34.53
2019-04-20T07:13:17.675Z,33.91
2019-04-20T07:16:18.552Z,33.22
2019-04-20T07:19:00.823Z,33.22
2019-04-20T07:22:08.886Z,34.94
2019-04-20T07:24:24.858Z,38.79
2019-04-20T07:26:58.847Z,40.13
2019-04-20T07:29:32.033Z,41.75
2019-04-20T07:31:48.745Z,43.38
2019-04-20T07:34:26.176Z,43.49
2019-04-20T07:37:17.743Z,41.63
2019-04-20T07:39:32.792Z,39.87
2019-04-20T07:42:01.820Z,42.25
2019-04-20T07:44:38.590Z,41.05
2019-04-20T07:47:07.849Z,40.51
2019-04-20T07:49:32.613Z,41.01
2019-04-20T07:51:43.702Z,40.39
2019-04-20T07:54:40.161Z,39.52
2019-04-20T07:57:02.085Z,38.83
2019-04-20T07:59:24.366Z,36.09
2019-04-20T08:02:07.824Z,31.79
2019-04-20T08:04:32.495Z,29.87
2019-04-20T08:06:53.200Z,32.16
2019-04-20T08:09:26.157Z,33.56
2019-04-20T08:12:22.509Z,35.69
2019-04-20T08:14:47.378Z,38.50
2019-04-20T08:17:26.792Z,37.12
2019-04-20T08:19:48.448Z,33.12
2019-04-20T08:22:21.868Z,32.06
2019-04-20T08:24:42.826Z,33.80
2019-04-20T08:27:07.591Z,34.66
2019-04-20T08:29:49.929Z,33.87
2019-04-20T08:32:28.323Z,33.72
2019-04-20T08:35:04.934Z,35.13
2019-04-20T08:37:26.612Z,33.59
2019-04-20T08:42:39.796Z,34.05
2019-04-20T08:45:04.024Z,35.09
2019-04-20T08:47:48.661Z,36.03
2019-04-20T08:50:17.264Z,37.50
2019-04-20T08:53:06.132Z,38.10
2019-04-20T08:55:09.272Z,33.61
2019-04-20T08:57:24.793Z,34.38
2019-04-20T08:59:54.361Z,36.81
2019-04-20T09:02:25.730Z,34.17
2019-04-20T09:05:02.540Z,31.76
2019-04-20T09:07:29.907Z,32.57
2019-04-20T09:10:16.435Z,32.65
2019-04-20T09:12:42.149Z,33.00
2019-04-20T09:14:57.367Z,34.01
2019-04-20T09:17:45.243Z,34.03
2019-04-20T09:20:16.256Z,34.26
2019-04-20T09:23:09.774Z,33.52
2019-04-20T09:25:53.376Z,28.46
2019-04-20T09:28:13.937Z,24.31
2019-04-20T09:30:48.122Z,22.76
2019-04-20T09:33:47.008Z,24.11
2019-04-20T09:36:19.654Z,26.16
2019-04-20T09:39:01.097Z,27.27
2019-04-20T09:41:54.842Z,26.77
2019-04-20T09:44:06.750Z,27.26
2019-04-20T09:46:40.163Z,25.72
2019-04-20T09:49:16.979Z,28.07
2019-04-20T09:51:51.142Z,24.52
2019-04-20T09:54:29.991Z,24.52
2019-04-20T09:56:59.232Z,21.48
2019-04-20T09:59:30.618Z,24.48
2019-04-20T10:01:45.376Z,21.97
2019-04-20T10:04:08.835Z,22.22
2019-04-20T10:06:37.761Z,24.77
2019-04-20T10:09:09.638Z,28.03
2019-04-20T10:11:41.770Z,25.79
2019-04-20T10:14:10.291Z,24.30
2019-04-20T10:16:40.014Z,21.53
2019-04-20T10:19:11.463Z,21.28
2019-04-20T10:21:39.178Z,19.39
2019-04-20T10:24:08.550Z,21.49
2019-04-20T10:26:38.594Z,23.31
2019-04-20T10:29:07.919Z,24.11
2019-04-20T10:31:42.564Z,21.29
2019-04-20T10:34:07.518Z,20.18
2019-04-20T10:36:41.732Z,18.99
2019-04-20T10:39:10.872Z,17.04
2019-04-20T10:41:50.150Z,17.45
2019-04-20T10:44:11.212Z,18.12
2019-04-20T10:46:40.954Z,16.73
2019-04-20T10:49:11.092Z,16.41
2019-04-20T10:51:40.264Z,16.97
2019-04-20T10:54:08.960Z,16.55
2019-04-20T10:56:37.679Z,15.94
2019-04-20T10:59:07.629Z,17.63
2019-04-20T11:01:37.938Z,22.09
2019-04-20T11:04:06.783Z,24.08
2019-04-20T11:06:36.508Z,23.11
2019-04-20T11:09:08.883Z,23.67
2019-04-20T11:11:38.788Z,24.26
2019-04-20T11:14:15.583Z,24.49
2019-04-20T11:16:38.309Z,23.30
2019-04-20T11:19:07.511Z,22.79
2019-04-20T11:21:36.580Z,23.00
2019-04-20T11:24:05.396Z,20.90
2019-04-20T11:26:37.092Z,21.27
2019-04-20T11:29:06.396Z,19.36
2019-04-20T11:31:40.883Z,17.69
2019-04-20T11:34:06.071Z,16.12
2019-04-20T11:36:35.037Z,16.15
2019-04-20T11:39:07.169Z,15.89
2019-04-20T11:41:37.701Z,14.92
2019-04-20T11:44:07.601Z,14.17
2019-04-20T11:46:36.667Z,16.22
2019-04-20T11:49:05.806Z,18.27
2019-04-20T11:51:34.548Z,21.01
2019-04-20T11:54:04.236Z,22.90
2019-04-20T11:56:38.273Z,23.11
2019-04-20T11:59:03.766Z,24.37
2019-04-20T12:01:43.075Z,25.65
2019-04-20T12:04:21.520Z,26.46
2019-04-20T12:06:36.920Z,27.02
2019-04-20T12:09:09.047Z,25.90
2019-04-20T12:11:53.480Z,24.59
2019-04-20T12:14:08.163Z,22.58
2019-04-20T12:16:37.503Z,22.95
2019-04-20T12:19:06.498Z,23.35
2019-04-20T12:21:35.168Z,25.12
2019-04-20T12:24:04.528Z,25.12
2019-04-20T12:26:33.263Z,24.40
2019-04-20T12:29:01.962Z,24.36
2019-04-20T12:31:31.502Z,24.17
2019-04-20T12:34:00.377Z,25.85
2019-04-20T12:36:30.215Z,25.17
2019-04-20T12:38:59.240Z,26.31
2019-04-20T12:41:37.851Z,27.02
2019-04-20T12:43:59.531Z,24.52
2019-04-20T12:46:29.656Z,20.83
2019-04-20T12:48:59.786Z,21.05
2019-04-20T12:51:33.501Z,19.57
2019-04-20T12:53:58.912Z,20.38
2019-04-20T12:56:28.540Z,23.26
2019-04-20T12:58:57.799Z,24.77
2019-04-20T13:01:26.888Z,27.06
2019-04-20T13:03:57.404Z,27.06
2019-04-20T13:06:27.912Z,28.51
2019-04-20T13:09:00.284Z,28.67
2019-04-20T13:11:43.597Z,28.69
2019-04-20T13:14:35.100Z,26.42
2019-04-20T13:17:04.218Z,24.06
2019-04-20T13:19:33.350Z,22.69
2019-04-20T13:22:03.235Z,21.08
2019-04-20T13:24:32.397Z,18.76
2019-04-20T13:27:01.199Z,19.63
2019-04-20T13:29:30.994Z,20.47
2019-04-20T13:32:00.142Z,22.94
2019-04-20T13:34:29.059Z,20.84
2019-04-20T13:36:58.191Z,22.20
2019-04-20T13:39:27.021Z,21.71
2019-04-20T13:42:04.464Z,23.77
2019-04-20T13:44:27.213Z,26.53
2019-04-20T13:46:56.718Z,27.19
2019-04-20T13:49:25.530Z,26.81
2019-04-20T13:51:54.886Z,28.57
2019-04-20T13:54:26.592Z,30.71
2019-04-20T13:56:55.791Z,31.96
2019-04-20T13:59:35.315Z,32.88
2019-04-20T14:02:06.755Z,32.50
2019-04-20T14:04:37.096Z,28.11
2019-04-20T14:07:07.395Z,25.90
2019-04-20T14:09:37.328Z,26.05
2019-04-20T14:12:20.212Z,27.02
2019-04-20T14:14:37.237Z,29.60
2019-04-20T14:17:07.544Z,29.48
2019-04-20T14:19:36.965Z,30.06
2019-04-20T14:22:06.145Z,30.85
2019-04-20T14:24:35.097Z,31.77
2019-04-20T14:27:03.984Z,30.93
2019-04-20T14:29:32.845Z,31.63
2019-04-20T14:32:03.652Z,31.74
2019-04-20T14:34:33.102Z,30.23
2019-04-20T14:37:02.553Z,30.03
2019-04-20T14:39:32.390Z,28.00
2019-04-20T14:42:02.305Z,27.98
2019-04-20T14:44:32.056Z,29.23
2019-04-20T14:47:01.018Z,28.40
2019-04-20T14:49:30.505Z,26.38
2019-04-20T14:52:01.150Z,24.36
2019-04-20T14:54:30.023Z,24.36
2019-04-20T14:56:59.199Z,24.62
2019-04-20T14:59:33.742Z,23.51
2019-04-20T15:02:04.083Z,22.82
2019-04-20T15:04:34.742Z,22.49
2019-04-20T15:07:04.657Z,21.82
2019-04-20T15:09:38.440Z,22.22
2019-04-20T15:12:06.803Z,22.85
2019-04-20T15:14:36.745Z,23.84
2019-04-20T15:17:06.767Z,24.77
2019-04-20T15:19:37.380Z,26.09
2019-04-20T15:22:23.774Z,24.92
2019-04-20T15:24:55.671Z,23.19
2019-04-20T15:27:24.595Z,22.97
2019-04-20T15:29:54.049Z,23.16
2019-04-20T15:32:23.055Z,23.81
2019-04-20T15:34:52.939Z,25.63
2019-04-20T15:37:23.321Z,27.21
2019-04-20T15:39:52.837Z,28.30
2019-04-20T15:42:21.580Z,29.50
2019-04-20T15:44:51.431Z,29.77
2019-04-20T15:47:20.374Z,30.04
2019-04-20T15:49:49.785Z,30.43
2019-04-20T15:52:24.518Z,30.97
2019-04-20T15:54:49.696Z,31.61
2019-04-20T15:57:23.264Z,31.46
2019-04-20T15:59:48.860Z,32.12
2019-04-20T16:02:23.050Z,32.48
2019-04-20T16:05:00.519Z,32.99
2019-04-20T16:07:30.763Z,32.35
2019-04-20T16:10:01.107Z,33.08
2019-04-20T16:12:31.068Z,33.57
2019-04-20T16:15:00.043Z,33.09
2019-04-20T16:17:32.754Z,32.76
2019-04-20T16:20:06.235Z,32.76
2019-04-20T16:22:31.019Z,33.62
2019-04-20T16:25:07.609Z,34.09
2019-04-20T16:27:38.103Z,34.56
2019-04-20T16:30:09.707Z,34.98
2019-04-20T16:32:38.640Z,35.02
2019-04-20T16:35:08.785Z,34.25
2019-04-20T16:37:38.392Z,34.89
2019-04-20T16:40:09.873Z,34.04
2019-04-20T16:42:41.798Z,34.43
2019-04-20T16:45:09.588Z,34.96
2019-04-20T16:47:38.329Z,36.07
2019-04-20T16:50:07.249Z,37.20
2019-04-20T16:52:36.931Z,38.08
2019-04-20T16:55:08.100Z,38.82
2019-04-20T16:57:37.434Z,39.31
2019-04-20T17:00:07.728Z,39.70
2019-04-20T17:02:36.457Z,40.07
2019-04-20T17:05:05.480Z,40.28
2019-04-20T17:07:37.164Z,40.63
2019-04-20T17:10:09.637Z,41.99
2019-04-20T17:12:39.948Z,41.10
2019-04-20T17:15:11.766Z,41.63
2019-04-20T17:17:40.744Z,42.01
2019-04-20T17:20:11.613Z,42.66
2019-04-20T17:22:40.422Z,43.41
2019-04-20T17:25:10.115Z,43.82
2019-04-20T17:27:44.748Z,44.71
2019-04-20T17:30:33.644Z,44.68
2019-04-20T17:33:04.390Z,45.93
2019-04-20T17:35:43.445Z,46.05
2019-04-20T17:38:04.764Z,45.90
2019-04-20T17:40:56.378Z,46.71
2019-04-20T17:43:16.009Z,48.23
2019-04-20T17:45:43.207Z,48.35
2019-04-20T17:48:18.588Z,49.44
2019-04-20T17:50:58.954Z,49.54
2019-04-20T17:53:20.419Z,50.07
2019-04-20T17:55:51.352Z,50.20
2019-04-20T17:58:24.133Z,50.30
2019-04-20T18:00:59.847Z,49.88
2019-04-20T18:04:05.498Z,49.98
2019-04-20T18:06:21.265Z,50.56
2019-04-20T18:08:49.405Z,50.56
2019-04-20T18:11:09.179Z,51.73
2019-04-20T18:13:34.095Z,51.72
2019-04-20T18:16:30.027Z,52.02
2019-04-20T18:19:01.977Z,51.87
2019-04-20T18:21:26.660Z,52.09
2019-04-20T18:23:56.254Z,51.86
2019-04-20T18:26:45.367Z,51.42
2019-04-20T18:29:15.007Z,51.52
2019-04-20T18:31:33.639Z,51.49
2019-04-20T18:34:11.270Z,52.22
2019-04-20T18:36:38.268Z,52.64
2019-04-20T18:39:10.463Z,53.32
2019-04-20T18:41:46.500Z,54.32
2019-04-20T18:44:08.626Z,53.14
2019-04-20T18:47:00.313Z,53.01
2019-04-20T18:49:24.214Z,52.73
2019-04-20T18:51:39.817Z,53.04
2019-04-20T18:54:16.208Z,52.72
2019-04-20T18:56:43.721Z,52.24
2019-04-20T18:59:09.430Z,52.66
2019-04-20T19:01:42.035Z,52.85
2019-04-20T19:04:09.866Z,52.75
2019-04-20T19:06:38.918Z,52.28
2019-04-20T19:09:09.533Z,52.36
2019-04-20T19:11:43.702Z,53.41
2019-04-20T19:14:34.956Z,53.87
2019-04-20T19:17:12.272Z,54.18
2019-04-20T19:19:42.429Z,55.27
2019-04-20T19:22:06.036Z,55.17
2019-04-20T19:24:37.893Z,55.82
2019-04-20T19:27:10.658Z,56.10
2019-04-20T19:29:45.610Z,55.94
2019-04-20T19:32:24.084Z,55.71
2019-04-20T19:34:54.137Z,55.47
2019-04-20T19:37:15.816Z,55.50
2019-04-20T19:39:54.682Z,55.57
2019-04-20T19:42:23.199Z,56.11
2019-04-20T19:44:53.801Z,56.61
2019-04-20T19:47:29.415Z,55.82
2019-04-20T19:49:49.739Z,55.62
2019-04-20T19:52:51.476Z,56.09
2019-04-20T19:55:04.093Z,55.77
2019-04-20T19:57:32.017Z,56.32
2019-04-20T19:59:48.373Z,57.20
2019-04-20T20:02:11.869Z,55.17
2019-04-20T20:04:48.807Z,54.92
2019-04-20T20:07:23.213Z,55.20
2019-04-20T20:09:51.580Z,55.22
2019-04-20T20:12:15.874Z,56.50
2019-04-20T20:14:46.077Z,56.30
2019-04-20T20:17:32.743Z,55.86
2019-04-20T20:20:06.765Z,55.32
2019-04-20T20:22:26.694Z,54.76
2019-04-20T20:24:45.097Z,54.84
2019-04-20T20:27:26.897Z,54.57
2019-04-20T20:29:57.243Z,54.75
2019-04-20T20:32:21.337Z,54.31
2019-04-20T20:34:54.408Z,53.70
2019-04-20T20:37:26.712Z,53.39
2019-04-20T20:39:54.382Z,53.19
2019-04-20T20:42:32.219Z,52.98
2019-04-20T20:44:54.965Z,53.02
2019-04-20T20:47:41.418Z,53.55
2019-04-20T20:50:15.437Z,55.61
2019-04-20T20:52:31.524Z,52.11
2019-04-20T20:54:58.850Z,52.49
2019-04-20T20:57:24.305Z,52.82
2019-04-20T20:59:55.268Z,52.79
2019-04-20T21:02:24.417Z,52.71
2019-04-20T21:04:51.321Z,53.16
2019-04-20T21:07:20.599Z,53.07
2019-04-20T21:09:50.414Z,52.69
2019-04-20T21:12:21.589Z,52.50
2019-04-20T21:14:50.929Z,53.01
2019-04-20T21:17:23.613Z,53.87
2019-04-20T21:20:06.355Z,53.55
2019-04-20T21:22:42.934Z,54.59
2019-04-20T21:24:55.263Z,55.42
2019-04-20T21:27:24.140Z,55.39
2019-04-20T21:29:57.865Z,55.19
2019-04-20T21:32:26.152Z,54.53
2019-04-20T21:35:02.671Z,54.50
2019-04-20T21:37:27.118Z,53.97
2019-04-20T21:39:59.715Z,52.70
2019-04-20T21:42:28.530Z,52.63
2019-04-20T21:45:05.599Z,54.02
2019-04-20T21:47:31.485Z,53.15
2019-04-20T21:50:17.123Z,52.91
2019-04-20T21:52:36.199Z,53.69
2019-04-20T21:54:58.435Z,52.37
2019-04-20T21:57:32.485Z,51.74
2019-04-20T22:00:07.035Z,52.88
2019-04-20T22:02:33.920Z,53.23
2019-04-20T22:04:58.262Z,54.19
2019-04-20T22:07:28.247Z,53.38
2019-04-20T22:09:58.424Z,53.36
2019-04-20T22:12:37.826Z,52.69
2019-04-20T22:15:03.952Z,52.56
2019-04-20T22:17:32.166Z,55.12
2019-04-20T22:20:07.012Z,53.52
2019-04-20T22:22:45.379Z,52.98
2019-04-20T22:25:16.122Z,53.17
2019-04-20T22:27:34.358Z,53.64
2019-04-20T22:30:00.115Z,55.21
2019-04-20T22:32:29.972Z,55.74
2019-04-20T22:35:03.184Z,56.29
2019-04-20T22:37:33.325Z,56.97
2019-04-20T22:40:03.089Z,57.83
2019-04-20T22:42:37.909Z,58.62
2019-04-20T22:45:07.239Z,59.87
2019-04-20T22:47:33.977Z,59.46
2019-04-20T22:50:21.572Z,60.24
2019-04-20T22:52:44.366Z,60.61
2019-04-20T22:55:31.233Z,60.32
2019-04-20T22:57:50.939Z,61.82
2019-04-20T23:00:12.286Z,60.24
2019-04-20T23:02:36.768Z,59.17
2019-04-20T23:05:07.037Z,59.34
2019-04-20T23:07:36.927Z,60.23
2019-04-20T23:10:08.731Z,61.04
2019-04-20T23:12:39.956Z,59.66
2019-04-20T23:15:10.355Z,60.93
2019-04-20T23:17:43.640Z,60.81
2019-04-20T23:20:17.166Z,60.33
2019-04-20T23:22:43.964Z,60.82
2019-04-20T23:25:11.286Z,60.49
2019-04-20T23:27:41.799Z,59.31
2019-04-20T23:30:20.246Z,59.07
2019-04-20T23:32:42.197Z,59.12
2019-04-20T23:35:16.267Z,59.94
2019-04-20T23:37:43.232Z,59.73
2019-04-20T23:40:15.025Z,59.41
2019-04-20T23:42:51.760Z,60.75
2019-04-20T23:45:35.497Z,61.56
2019-04-20T23:48:04.313Z,61.82
2019-04-20T23:50:49.012Z,59.08
2019-04-20T23:53:22.319Z,58.93
2019-04-20T23:55:31.921Z,59.92
2019-04-20T23:58:04.974Z,60.86
